ADDS METAR Data INFO
IDs: Format: Raw Decoded Include TAF

Data at: 0433 UTC 28 Jul 2017

KT20 280415Z AUTO 17007KT 10SM CLR 28/23 A2996 RMK AO2 T02800231
KT20 280355Z AUTO 17008KT 10SM CLR 29/23 A2996 RMK AO2 T02850231
KT20 280335Z AUTO 17008G14KT 10SM CLR 29/23 A2995 RMK AO2 T02880231
KT20 280315Z AUTO 16010KT 10SM CLR 29/23 A2994 RMK AO2 T02920230
KT20 280255Z AUTO 16008KT 10SM CLR 30/23 A2994 RMK AO2 T02970225
KT20 280235Z AUTO 15010KT 10SM CLR 31/22 A2994 RMK AO2 T03050222
KT20 280215Z AUTO 16010KT 10SM CLR 31/22 A2994 RMK AO2 T03090221
KT20 280155Z AUTO 16009KT 10SM CLR 32/22 A2993 RMK AO2 T03150218
KT20 280135Z AUTO 16011G15KT 10SM CLR 32/22 A2993 RMK AO2 T03220217
KT20 280115Z AUTO 16009G15KT 10SM CLR 33/22 A2992 RMK AO2 T03290216
KT20 280055Z AUTO 16010KT 10SM CLR 34/21 A2992 RMK AO2 T03360212
KT20 280035Z AUTO 15010G14KT 10SM SCT070 34/21 A2992 RMK AO2 T03410207
KT20 280015Z AUTO 16009KT 10SM SCT070 35/21 A2992 RMK AO2 T03480209
KT20 272355Z AUTO 13007KT 10SM CLR 36/22 A2991 RMK AO2 T03620217 10382 20339
KT20 272335Z AUTO 14009G14KT 10SM CLR 37/22 A2991 RMK AO2 T03650217
KT20 272315Z AUTO 13007KT 10SM CLR 37/23 A2992 RMK AO2 T03650226
KT20 272255Z AUTO 13006KT 10SM CLR 37/23 A2992 RMK AO2 T03670228
KT20 272235Z AUTO 14008KT 10SM CLR 37/23 A2992 RMK AO2 T03650228
KT20 272215Z AUTO 15012KT 10SM SCT070 37/22 A2993 RMK AO2 T03690219
KT20 272155Z AUTO 14013KT 10SM BKN070 37/22 A2994 RMK AO2 T03710218
KT20 272135Z AUTO 16006KT 10SM SCT070 38/21 A2994 RMK AO2 T03800213
KT20 272115Z AUTO 15010G14KT 100V170 10SM SCT060 38/22 A2995 RMK AO2 T03750218
KT20 272055Z AUTO 12007KT 110V180 10SM SCT060 38/22 A2996 RMK AO2 T03770220
KT20 272035Z AUTO 16010G15KT 10SM SCT060 SCT080 38/23 A2997 RMK AO2 T03770226
KT20 272015Z AUTO 16006KT 10SM SCT060 SCT070 36/22 A2998 RMK AO2 T03640221
KT20 271955Z AUTO 17006KT 10SM SCT060 37/23 A2999 RMK AO2 T03720226
KT20 271935Z AUTO 17007KT 10SM SCT060 37/23 A3001 RMK AO2 T03700228
KT20 271915Z AUTO 20005KT 10SM SCT060 37/23 A3002 RMK AO2 T03700225
KT20 271855Z AUTO 17009KT 10SM CLR 36/22 A3002 RMK AO2 T03630223
KT20 271835Z AUTO 17004KT 10SM SCT049 35/22 A3003 RMK AO2 T03540222
KT20 271815Z AUTO 00000KT 10SM SCT049 35/23 A3003 RMK AO2 T03540227
KT20 271755Z AUTO 23003KT 10SM CLR 35/22 A3004 RMK AO2 T03450224 10355 20225
KT20 271735Z AUTO 17003KT 10SM SCT044 35/23 A3005 RMK AO2 T03460229
KT20 271715Z AUTO 15004KT 10SM SCT039 34/23 A3006 RMK AO2 T03400227
KT20 271655Z AUTO 21005KT 10SM SCT039 34/23 A3006 RMK AO2 T03420234
KT20 271635Z AUTO 18008KT 10SM CLR 33/24 A3006 RMK AO2 T03330235
KT20 271615Z AUTO 19007KT 10SM CLR 33/24 A3007 RMK AO2 T03260236
KT20 271555Z AUTO 18009KT 10SM SCT025 32/24 A3007 RMK AO2 T03220244
KT20 271535Z AUTO 17006KT 10SM SCT023 31/25 A3007 RMK AO2 T03110248
KT20 271515Z AUTO 20007KT 10SM SCT017 30/25 A3007 RMK AO2 T02970249
KT20 271455Z AUTO 21005KT 10SM SCT015 29/25 A3006 RMK AO2 T02850254
KT20 271435Z AUTO 20008KT 10SM SCT011 28/25 A3007 RMK AO2 T02770254
KT20 271415Z AUTO 19003KT 10SM SCT009 28/26 A3007 RMK AO2 T02750257
KT20 271355Z AUTO 20004KT 10SM SCT009 27/26 A3006 RMK AO2 T02700255
KT20 271335Z AUTO 14003KT 10SM CLR 26/25 A3006 RMK AO2 T02620252
KT20 271315Z AUTO 12003KT 10SM CLR 25/25 A3007 RMK AO2 T02510250
KT20 271255Z AUTO 00000KT 10SM CLR 24/24 A3006 RMK AO2 T02440244
KT20 271235Z AUTO 00000KT 10SM CLR 23/23 A3006 RMK AO2 T02320232
KT20 271215Z AUTO 00000KT 10SM CLR 23/23 A3005 RMK AO2 T02300230
KT20 271155Z AUTO 00000KT 10SM CLR 23/23 A3004 RMK AO2 T02250225 10251 20225
KT20 271135Z AUTO 00000KT 10SM CLR 23/23 A3004 RMK AO2 T02280228
KT20 271115Z AUTO 00000KT 10SM CLR 23/23 A3003 RMK AO2 T02300230
KT20 271055Z AUTO 08003KT 10SM CLR 23/23 A3003 RMK AO2 T02320232
KT20 271035Z AUTO 00000KT 10SM CLR 23/23 A3002 RMK AO2 T02310231
KT20 271015Z AUTO 00000KT 10SM CLR 23/23 A3002 RMK AO2 T02330233
KT20 270955Z AUTO 00000KT 10SM CLR 24/24 A3002 RMK AO2 T02350235
KT20 270935Z AUTO 00000KT 10SM CLR 24/24 A3002 RMK AO2 T02350235
KT20 270915Z AUTO 00000KT 10SM CLR 23/23 A3003 RMK AO2 T02330233
KT20 270855Z AUTO 00000KT 10SM CLR 24/24 A3004 RMK AO2 T02350235
KT20 270835Z AUTO 00000KT 10SM CLR 24/24 A3004 RMK AO2 T02350235
KT20 270815Z AUTO 00000KT 10SM CLR 24/24 A3004 RMK AO2 T02400239
KT20 270755Z AUTO 00000KT 10SM CLR 24/24 A3004 RMK AO2 T02420240
KT20 270735Z AUTO 00000KT 10SM CLR 24/24 A3005 RMK AO2 T02430239
KT20 270715Z AUTO 18003KT 10SM CLR 25/24 A3005 RMK AO2 T02460240
KT20 270655Z AUTO 17005KT 10SM CLR 25/24 A3004 RMK AO2 T02470238
KT20 270635Z AUTO 17005KT 10SM CLR 25/24 A3004 RMK AO2 T02500236
KT20 270615Z AUTO 17005KT 10SM CLR 25/24 A3004 RMK AO2 T02500235
KT20 270555Z AUTO 17005KT 10SM CLR 25/23 A3005 RMK AO2 T02510232 10265 20251 403850248
KT20 270535Z AUTO 16006KT 10SM CLR 25/23 A3005 RMK AO2 T02520232
KT20 270515Z AUTO 17006KT 10SM CLR 25/23 A3005 RMK AO2 T02530234
KT20 270455Z AUTO 18005KT 10SM CLR 26/24 A3005 RMK AO2 T02550237
KT20 270435Z AUTO 16006KT 10SM CLR 26/24 A3006 RMK AO2 T02570240
KT20 270415Z AUTO 16005KT 10SM CLR 26/25 A3006 RMK AO2 T02570245
KT20 270355Z AUTO 14005KT 10SM CLR 26/25 A3006 RMK AO2 T02590246
KT20 270335Z AUTO 12003KT 10SM CLR 26/25 A3005 RMK AO2 T02600247
KT20 270315Z AUTO 16004KT 10SM CLR 26/25 A3004 RMK AO2 T02550250
KT20 270255Z AUTO 19003KT 10SM CLR 26/25 A3003 RMK AO2 T02550252
KT20 270235Z AUTO 00000KT 10SM CLR 26/25 A3002 RMK AO2 T02550250
KT20 270215Z AUTO 00000KT 10SM CLR 26/25 A3001 RMK AO2 T02560252
KT20 270155Z AUTO 11003KT 10SM CLR 26/25 A3000 RMK AO2 T02610251
KT20 270135Z AUTO 12003KT 10SM CLR 26/25 A3000 RMK AO2 T02640250
KT20 270115Z AUTO 17003KT 10SM CLR 27/25 A3000 RMK AO2 T02650252
KT20 270055Z AUTO 12003KT 10SM CLR 27/25 A2999 RMK AO2 T02650253
KT20 270035Z AUTO 13005KT 10SM SCT027 26/25 A2999 RMK AO2 LTG DSNT N T02600250
KT20 270015Z AUTO 22003KT 10SM RA SCT022 BKN028 BKN037 26/25 A3000 RMK AO2 LTG DSNT N AND SW T02550248
KT20 262355Z AUTO 18010G24KT 10SM SCT020 SCT034 OVC080 27/23 A3004 RMK AO2 LTG DSNT ALQS T02650233 10385 20265
KT20 262335Z AUTO 20013G18KT 10SM -TSRA SCT034 BKN045 OVC065 29/24 A3004 RMK AO2 LTG DSNT E THRU SW T02880236
KT20 262315Z AUTO 15013G19KT 10SM VCTS BKN065 BKN095 34/22 A2999 RMK AO2 LTG DSNT NE THRU SW T03420215
KT20 262255Z AUTO 15011G16KT 10SM VCTS SCT075 BKN095 36/21 A2997 RMK AO2 LTG DSNT SE AND SW T03560209
KT20 262235Z AUTO 14011KT 10SM BKN075 BKN085 37/21 A2998 RMK AO2 T03730210
KT20 262215Z AUTO 15006KT 10SM BKN085 36/20 A2998 RMK AO2 T03590201
KT20 262155Z AUTO 13006KT 10SM SCT070 BKN100 38/21 A2998 RMK AO2 T03820210
KT20 262135Z AUTO 16008KT 10SM SCT065 SCT080 38/21 A2999 RMK AO2 T03820213
KT20 262115Z AUTO 13006KT 10SM SCT065 SCT080 36/21 A2999 RMK AO2 T03610212
KT20 262055Z AUTO 18009KT 10SM CLR 38/22 A2999 RMK AO2 T03790218
KT20 262035Z AUTO 17005KT 10SM SCT070 38/21 A3000 RMK AO2 T03750213
KT20 262015Z AUTO 13006KT 10SM CLR 37/21 A3002 RMK AO2 T03720213
KT20 261955Z AUTO 19006KT 10SM SCT065 37/21 A3003 RMK AO2 T03720209
KT20 261935Z AUTO 21005KT 10SM CLR 37/22 A3004 RMK AO2 T03710216
KT20 261915Z AUTO 17010KT 10SM SCT065 37/21 A3005 RMK AO2 T03710210
KT20 261855Z AUTO 20008G14KT 10SM SCT065 37/22 A3006 RMK AO2 T03700215
KT20 261835Z AUTO 17010G14KT 10SM CLR 36/22 A3007 RMK AO2 T03640221
KT20 261815Z AUTO 20010G16KT 10SM CLR 36/22 A3007 RMK AO2 T03630215
KT20 261755Z AUTO 19008G14KT 160V220 10SM CLR 35/22 A3007 RMK AO2 T03540217 10354 20256
KT20 261735Z AUTO 18008G17KT 10SM CLR 35/22 A3008 RMK AO2 T03530221
KT20 261715Z AUTO 20007KT 180V250 10SM CLR 35/22 A3008 RMK AO2 T03480223
KT20 261655Z AUTO 17007KT 10SM CLR 34/22 A3009 RMK AO2 T03380223
KT20 261635Z AUTO 18009KT 10SM CLR 34/22 A3010 RMK AO2 T03370223